createdAt,value
2019-02-06T00:00:48.414Z,20.06
2019-02-06T00:01:48.400Z,20.13
2019-02-06T00:02:48.391Z,20.11
2019-02-06T00:03:48.378Z,20.11
2019-02-06T00:04:48.365Z,20.13
2019-02-06T00:05:48.357Z,20.13
2019-02-06T00:06:48.344Z,20.06
2019-02-06T00:07:48.333Z,20.04
2019-02-06T00:08:48.326Z,20.13
2019-02-06T00:09:48.308Z,19.95
2019-02-06T00:10:48.311Z,20.00
2019-02-06T00:11:48.293Z,20.00
2019-02-06T00:12:48.277Z,20.09
2019-02-06T00:13:48.267Z,20.09
2019-02-06T00:14:48.257Z,19.99
2019-02-06T00:15:48.254Z,20.03
2019-02-06T00:16:48.252Z,19.96
2019-02-06T00:17:48.256Z,19.95
2019-02-06T00:18:48.238Z,19.96
2019-02-06T00:19:48.199Z,20.00
2019-02-06T00:20:48.226Z,20.10
2019-02-06T00:21:48.179Z,19.96
2019-02-06T00:22:48.165Z,19.94
2019-02-06T00:23:48.158Z,19.95
2019-02-06T00:24:48.144Z,19.92
2019-02-06T00:25:48.189Z,19.96
2019-02-06T00:26:48.122Z,19.91
2019-02-06T00:27:48.109Z,19.95
2019-02-06T00:28:48.103Z,19.94
2019-02-06T00:29:48.089Z,19.95
2019-02-06T00:30:48.077Z,20.00
2019-02-06T00:31:48.074Z,19.91
2019-02-06T00:32:48.064Z,19.99
2019-02-06T00:33:48.043Z,19.95
2019-02-06T00:34:48.033Z,19.89
2019-02-06T00:35:48.020Z,19.99
2019-02-06T00:36:48.019Z,19.95
2019-02-06T00:37:48.007Z,19.89
2019-02-06T00:38:47.990Z,19.95
2019-02-06T00:39:47.976Z,19.91
2019-02-06T00:40:47.969Z,19.96
2019-02-06T00:41:48.074Z,19.89
2019-02-06T00:42:47.943Z,19.94
2019-02-06T00:43:47.936Z,19.91
2019-02-06T00:44:47.921Z,19.89
2019-02-06T00:45:47.913Z,19.84
2019-02-06T00:46:47.912Z,19.82
2019-02-06T00:47:47.889Z,19.92
2019-02-06T00:48:47.879Z,19.89
2019-02-06T00:49:47.865Z,19.86
2019-02-06T00:50:47.856Z,19.94
2019-02-06T00:51:47.853Z,19.85
2019-02-06T00:52:47.834Z,19.91
2019-02-06T00:53:47.826Z,19.85
2019-02-06T00:54:47.812Z,19.88
2019-02-06T00:55:47.801Z,19.85
2019-02-06T00:56:47.797Z,19.84
2019-02-06T00:57:47.778Z,19.82
2019-02-06T00:58:47.766Z,19.88
2019-02-06T00:59:47.757Z,19.82
2019-02-06T01:00:47.745Z,19.81
2019-02-06T01:01:48.238Z,19.82
2019-02-06T01:02:47.721Z,19.86
2019-02-06T01:03:47.710Z,19.82
2019-02-06T01:04:47.699Z,19.76
2019-02-06T01:05:47.690Z,19.85
2019-02-06T01:06:47.690Z,19.81
2019-02-06T01:07:47.677Z,19.86
2019-02-06T01:08:47.661Z,19.81
2019-02-06T01:09:47.645Z,19.84
2019-02-06T01:10:47.634Z,19.85
2019-02-06T01:11:47.631Z,19.81
2019-02-06T01:12:47.613Z,19.82
2019-02-06T01:13:47.601Z,19.84
2019-02-06T01:14:47.590Z,19.86
2019-02-06T01:15:47.578Z,19.88
2019-02-06T01:16:47.614Z,19.70
2019-02-06T01:17:47.557Z,19.81
2019-02-06T01:18:47.547Z,19.79
2019-02-06T01:19:47.537Z,19.91
2019-02-06T01:20:47.526Z,19.84
2019-02-06T01:21:47.512Z,19.85
2019-02-06T01:22:47.502Z,19.84
2019-02-06T01:23:47.489Z,19.85
2019-02-06T01:24:47.478Z,19.79
2019-02-06T01:25:47.467Z,19.86
2019-02-06T01:26:47.455Z,19.77
2019-02-06T01:27:47.447Z,19.79
2019-02-06T01:28:47.479Z,19.82
2019-02-06T01:29:47.422Z,19.77
2019-02-06T01:30:47.412Z,19.79
2019-02-06T01:31:47.401Z,19.76
2019-02-06T01:32:47.396Z,19.79
2019-02-06T01:33:47.381Z,19.76
2019-02-06T01:34:47.369Z,19.84
2019-02-06T01:35:50.028Z,19.77
2019-02-06T01:36:47.347Z,19.79
2019-02-06T01:37:47.367Z,19.77
2019-02-06T01:38:47.342Z,19.77
2019-02-06T01:39:47.319Z,19.74
2019-02-06T01:40:47.302Z,19.79
2019-02-06T01:41:47.292Z,19.79
2019-02-06T01:42:47.280Z,19.73
2019-02-06T01:43:47.282Z,19.77
2019-02-06T01:44:47.258Z,19.74
2019-02-06T01:45:47.246Z,19.74
2019-02-06T01:46:47.236Z,19.74
2019-02-06T01:47:47.231Z,19.67
2019-02-06T01:48:47.361Z,19.73
2019-02-06T01:49:47.203Z,19.73
2019-02-06T01:50:47.190Z,19.76
2019-02-06T01:51:47.180Z,19.73
2019-02-06T01:52:47.170Z,19.81
2019-02-06T01:53:47.170Z,19.70
2019-02-06T01:54:47.145Z,19.71
2019-02-06T01:55:47.135Z,19.81
2019-02-06T01:56:47.123Z,19.70
2019-02-06T01:57:47.112Z,19.74
2019-02-06T01:58:47.110Z,19.71
2019-02-06T01:59:47.093Z,19.74
2019-02-06T02:00:47.095Z,19.69
2019-02-06T02:01:47.068Z,19.69
2019-02-06T02:02:47.056Z,19.69
2019-02-06T02:03:47.059Z,19.67
2019-02-06T02:04:47.036Z,19.69
2019-02-06T02:05:47.025Z,19.73
2019-02-06T02:06:47.015Z,19.70
2019-02-06T02:07:47.004Z,19.69
2019-02-06T02:08:47.009Z,19.76
2019-02-06T02:09:46.980Z,19.70
2019-02-06T02:10:46.973Z,19.63
2019-02-06T02:11:46.958Z,19.71
2019-02-06T02:12:46.948Z,19.62
2019-02-06T02:13:46.947Z,19.66
2019-02-06T02:14:46.925Z,19.71
2019-02-06T02:15:46.915Z,19.70
2019-02-06T02:16:46.906Z,19.63
2019-02-06T02:17:46.894Z,19.63
2019-02-06T02:18:46.895Z,19.70
2019-02-06T02:19:46.873Z,19.67
2019-02-06T02:20:46.860Z,19.69
2019-02-06T02:21:46.848Z,19.63
2019-02-06T02:22:46.837Z,19.62
2019-02-06T02:23:46.851Z,19.67
2019-02-06T02:24:46.816Z,19.64
2019-02-06T02:25:46.810Z,19.66
2019-02-06T02:26:46.792Z,19.62
2019-02-06T02:27:46.780Z,19.62
2019-02-06T02:28:46.772Z,19.59
2019-02-06T02:29:46.767Z,19.59
2019-02-06T02:30:46.749Z,19.69
2019-02-06T02:31:46.736Z,19.64
2019-02-06T02:32:46.728Z,19.63
2019-02-06T02:33:46.724Z,19.59
2019-02-06T02:34:46.713Z,19.66
2019-02-06T02:35:46.696Z,19.67
2019-02-06T02:36:46.679Z,19.66
2019-02-06T02:37:46.669Z,19.59
2019-02-06T02:38:46.665Z,19.59
2019-02-06T02:39:46.656Z,19.56
2019-02-06T02:40:46.637Z,19.63
2019-02-06T02:41:46.627Z,19.62
2019-02-06T02:42:46.614Z,19.59
2019-02-06T02:43:46.604Z,19.66
2019-02-06T02:44:46.602Z,19.55
2019-02-06T02:45:46.581Z,19.59
2019-02-06T02:46:46.601Z,19.55
2019-02-06T02:47:46.567Z,19.63
2019-02-06T02:48:46.551Z,19.58
2019-02-06T02:49:46.545Z,19.59
2019-02-06T02:50:46.523Z,19.58
2019-02-06T02:51:46.513Z,19.63
2019-02-06T02:52:46.510Z,19.56
2019-02-06T02:53:46.497Z,19.58
2019-02-06T02:54:46.490Z,19.59
2019-02-06T02:55:46.474Z,19.59
2019-02-06T02:56:46.456Z,19.52
2019-02-06T02:57:46.517Z,19.56
2019-02-06T02:58:46.435Z,19.62
2019-02-06T02:59:46.434Z,19.56
2019-02-06T03:00:46.413Z,19.52
2019-02-06T03:01:46.406Z,19.55
2019-02-06T03:02:46.391Z,19.56
2019-02-06T03:03:46.385Z,19.51
2019-02-06T03:04:46.378Z,19.55
2019-02-06T03:05:46.358Z,19.56
2019-02-06T03:06:46.354Z,19.52
2019-02-06T03:07:46.339Z,19.52
2019-02-06T03:08:46.327Z,19.56
2019-02-06T03:09:46.458Z,19.55
2019-02-06T03:10:46.302Z,19.52
2019-02-06T03:11:46.291Z,19.51
2019-02-06T03:12:46.281Z,19.51
2019-02-06T03:13:46.273Z,19.52
2019-02-06T03:14:46.257Z,19.52
2019-02-06T03:15:46.248Z,19.52
2019-02-06T03:16:46.239Z,19.51
2019-02-06T03:17:46.225Z,19.55
2019-02-06T03:18:46.226Z,19.52
2019-02-06T03:19:46.210Z,19.47
2019-02-06T03:20:46.191Z,19.51
2019-02-06T03:21:46.214Z,19.54
2019-02-06T03:22:46.167Z,19.45
2019-02-06T03:23:46.158Z,19.52
2019-02-06T03:24:46.149Z,19.41
2019-02-06T03:25:46.137Z,19.49
2019-02-06T03:26:46.133Z,19.54
2019-02-06T03:27:46.113Z,19.44
2019-02-06T03:28:46.166Z,19.49
2019-02-06T03:29:46.090Z,19.47
2019-02-06T03:30:46.090Z,19.44
2019-02-06T03:31:46.069Z,19.44
2019-02-06T03:32:46.061Z,19.47
2019-02-06T03:33:46.198Z,19.45
2019-02-06T03:34:46.036Z,19.47
2019-02-06T03:35:46.027Z,19.41
2019-02-06T03:36:46.011Z,19.44
2019-02-06T03:37:46.001Z,19.47
2019-02-06T03:38:45.992Z,19.39
2019-02-06T03:39:45.979Z,19.47
2019-02-06T03:40:45.975Z,19.49
2019-02-06T03:41:45.958Z,19.44
2019-02-06T03:42:45.945Z,19.41
2019-02-06T03:43:45.936Z,19.49
2019-02-06T03:44:45.924Z,19.44
2019-02-06T03:45:45.928Z,19.44
2019-02-06T03:46:45.899Z,19.41
2019-02-06T03:47:45.898Z,19.49
2019-02-06T03:48:45.881Z,19.44
2019-02-06T03:49:45.867Z,19.44
2019-02-06T03:50:45.857Z,19.40
2019-02-06T03:51:45.854Z,19.40
2019-02-06T03:52:45.836Z,19.40
2019-02-06T03:53:45.823Z,19.47
2019-02-06T03:54:45.812Z,19.40
2019-02-06T03:55:45.801Z,19.34
2019-02-06T03:56:45.798Z,19.34
2019-02-06T03:57:45.777Z,19.37
2019-02-06T03:58:45.769Z,19.39
2019-02-06T03:59:45.756Z,19.37
2019-02-06T04:00:45.744Z,19.44
2019-02-06T04:01:45.743Z,19.37
2019-02-06T04:02:45.722Z,19.37
2019-02-06T04:03:45.716Z,19.39
2019-02-06T04:04:45.701Z,19.36
2019-02-06T04:05:45.690Z,19.39
2019-02-06T04:06:55.151Z,19.41
2019-02-06T04:07:46.667Z,19.37
2019-02-06T04:08:45.657Z,19.45
2019-02-06T04:09:45.644Z,19.36
2019-02-06T04:10:45.634Z,19.40
2019-02-06T04:11:45.631Z,19.41
2019-02-06T04:12:45.621Z,19.37
2019-02-06T04:13:45.606Z,19.39
2019-02-06T04:14:45.588Z,19.34
2019-02-06T04:15:45.579Z,19.31
2019-02-06T04:16:45.577Z,19.36
2019-02-06T04:17:45.557Z,19.44
2019-02-06T04:18:45.549Z,19.30
2019-02-06T04:19:45.534Z,19.33
2019-02-06T04:20:45.526Z,19.33
2019-02-06T04:21:45.522Z,19.37
2019-02-06T04:22:45.510Z,19.33
2019-02-06T04:23:45.494Z,19.40
2019-02-06T04:24:45.480Z,19.44
2019-02-06T04:25:45.468Z,19.40
2019-02-06T04:26:45.466Z,19.33
2019-02-06T04:27:45.447Z,19.31
2019-02-06T04:28:45.436Z,19.41
2019-02-06T04:29:45.432Z,19.34
2019-02-06T04:30:45.413Z,19.34
2019-02-06T04:31:45.413Z,19.45
2019-02-06T04:32:45.391Z,19.39
2019-02-06T04:33:45.379Z,19.33
2019-02-06T04:34:45.370Z,19.37
2019-02-06T04:35:45.364Z,19.33
2019-02-06T04:36:45.348Z,19.27
2019-02-06T04:37:45.344Z,19.40
2019-02-06T04:38:45.328Z,19.33
2019-02-06T04:39:45.316Z,19.31
2019-02-06T04:40:45.304Z,19.34
2019-02-06T04:41:45.297Z,19.39
2019-02-06T04:42:45.288Z,19.40
2019-02-06T04:43:45.275Z,19.41
2019-02-06T04:44:45.264Z,19.34
2019-02-06T04:45:45.257Z,19.39
2019-02-06T04:46:45.362Z,19.33
2019-02-06T04:47:45.233Z,19.34
2019-02-06T04:48:45.218Z,19.33
2019-02-06T04:49:45.226Z,19.36
2019-02-06T04:50:45.197Z,19.33
2019-02-06T04:51:45.184Z,19.40
2019-02-06T04:52:45.184Z,19.39
2019-02-06T04:53:45.163Z,19.33
2019-02-06T04:54:45.156Z,19.40
2019-02-06T04:55:45.141Z,19.37
2019-02-06T04:56:45.133Z,19.40
2019-02-06T04:57:45.130Z,19.44
2019-02-06T04:58:45.108Z,19.34
2019-02-06T04:59:45.099Z,19.41
2019-02-06T05:00:45.096Z,19.40
2019-02-06T05:01:45.074Z,19.41
2019-02-06T05:02:45.356Z,19.30
2019-02-06T05:03:45.054Z,19.33
2019-02-06T05:04:45.050Z,19.41
2019-02-06T05:05:45.032Z,19.34
2019-02-06T05:06:45.024Z,19.44
2019-02-06T05:07:45.011Z,19.44
2019-02-06T05:08:45.010Z,19.36
2019-02-06T05:09:44.990Z,19.39
2019-02-06T05:10:44.980Z,19.36
2019-02-06T05:11:44.968Z,19.40
2019-02-06T05:12:44.963Z,19.39
2019-02-06T05:13:44.955Z,19.31
2019-02-06T05:14:44.933Z,19.36
2019-02-06T05:15:44.923Z,19.36
2019-02-06T05:16:44.912Z,19.33
2019-02-06T05:17:44.922Z,19.41
2019-02-06T05:18:44.912Z,19.31
2019-02-06T05:19:44.878Z,19.36
2019-02-06T05:20:44.876Z,19.34
2019-02-06T05:21:44.859Z,19.29
2019-02-06T05:22:44.848Z,19.34
2019-02-06T05:23:44.852Z,19.34
2019-02-06T05:24:44.827Z,19.27
2019-02-06T05:25:44.815Z,19.34
2019-02-06T05:26:44.826Z,19.31
2019-02-06T05:27:44.797Z,19.33
2019-02-06T05:28:44.807Z,19.36
2019-02-06T05:29:44.777Z,19.27
2019-02-06T05:30:44.762Z,19.26
2019-02-06T05:31:44.747Z,19.24
2019-02-06T05:32:44.739Z,19.27
2019-02-06T05:33:44.729Z,19.24
2019-02-06T05:34:44.723Z,19.26
2019-02-06T05:35:44.707Z,19.22
2019-02-06T05:36:44.714Z,19.22
2019-02-06T05:37:44.686Z,19.18
2019-02-06T05:38:44.676Z,19.26
2019-02-06T05:39:44.673Z,19.26
2019-02-06T05:40:44.656Z,19.21
2019-02-06T05:41:44.650Z,19.26
2019-02-06T05:42:44.631Z,19.21
2019-02-06T05:43:44.621Z,19.22
2019-02-06T05:44:44.620Z,19.16
2019-02-06T05:45:44.599Z,19.18
2019-02-06T05:46:44.600Z,19.18
2019-02-06T05:47:44.587Z,19.16
2019-02-06T05:48:44.584Z,19.18
2019-02-06T05:49:44.566Z,19.21
2019-02-06T05:50:44.548Z,19.24
2019-02-06T05:51:44.533Z,19.19
2019-02-06T05:52:44.529Z,19.14
2019-02-06T05:53:44.509Z,19.24
2019-02-06T05:54:44.511Z,19.19
2019-02-06T05:55:44.525Z,19.19
2019-02-06T05:56:44.478Z,19.18
2019-02-06T05:57:44.471Z,19.19
2019-02-06T05:58:44.461Z,19.24
2019-02-06T05:59:44.453Z,19.27
2019-02-06T06:00:44.433Z,19.22
2019-02-06T06:01:44.420Z,19.30
2019-02-06T06:02:44.408Z,19.21
2019-02-06T06:03:44.400Z,19.22
2019-02-06T06:04:44.426Z,19.21
2019-02-06T06:05:44.378Z,19.18
2019-02-06T06:06:44.368Z,19.27
2019-02-06T06:07:45.624Z,19.15
2019-02-06T06:08:44.343Z,19.16
2019-02-06T06:09:44.333Z,19.27
2019-02-06T06:10:44.337Z,19.26
2019-02-06T06:11:44.313Z,19.24
2019-02-06T06:12:44.299Z,19.26
2019-02-06T06:13:44.288Z,19.18
2019-02-06T06:14:44.281Z,19.16
2019-02-06T06:15:44.270Z,19.22
2019-02-06T06:16:44.260Z,19.24
2019-02-06T06:17:44.246Z,19.18
2019-02-06T06:18:44.235Z,19.24
2019-02-06T06:19:44.226Z,19.29
2019-02-06T06:20:44.220Z,19.31
2019-02-06T06:21:44.200Z,19.34
2019-02-06T06:22:44.188Z,19.41
2019-02-06T06:23:44.178Z,19.36
2019-02-06T06:24:44.201Z,19.39
2019-02-06T06:25:44.158Z,19.45
2019-02-06T06:26:44.154Z,19.52
2019-02-06T06:27:44.139Z,19.52
2019-02-06T06:28:44.164Z,19.54
2019-02-06T06:29:44.123Z,19.56
2019-02-06T06:30:47.119Z,19.55
2019-02-06T06:31:44.092Z,19.63
2019-02-06T06:32:44.155Z,19.66
2019-02-06T06:33:44.172Z,19.63
2019-02-06T06:34:44.054Z,19.69
2019-02-06T06:35:44.053Z,19.67
2019-02-06T06:36:44.051Z,19.73
2019-02-06T06:37:44.029Z,19.70
2019-02-06T06:38:45.016Z,19.77
2019-02-06T06:39:44.006Z,19.77
2019-02-06T06:40:44.001Z,19.74
2019-02-06T06:41:43.979Z,19.69
2019-02-06T06:42:43.969Z,19.69
2019-02-06T06:43:43.960Z,19.76
2019-02-06T06:44:43.950Z,19.74
2019-02-06T06:45:43.968Z,19.81
2019-02-06T06:46:43.924Z,19.79
2019-02-06T06:47:43.916Z,19.79
2019-02-06T06:48:43.905Z,19.79
2019-02-06T06:49:43.897Z,19.40
2019-02-06T06:50:43.890Z,18.75
2019-02-06T06:51:43.869Z,17.65
2019-02-06T06:52:43.861Z,16.53
2019-02-06T06:53:43.846Z,15.35
2019-02-06T06:54:43.836Z,14.50
2019-02-06T06:55:43.836Z,13.67
2019-02-06T06:56:43.813Z,12.86
2019-02-06T06:57:43.801Z,12.18
2019-02-06T06:58:43.793Z,11.72
2019-02-06T06:59:43.780Z,11.69
2019-02-06T07:00:43.781Z,11.80
2019-02-06T07:01:43.763Z,12.06
2019-02-06T07:02:43.749Z,12.36
2019-02-06T07:03:43.739Z,12.73
2019-02-06T07:04:43.725Z,13.13
2019-02-06T07:05:43.715Z,13.53
2019-02-06T07:06:46.354Z,13.75
2019-02-06T07:07:43.699Z,14.18
2019-02-06T07:08:43.692Z,14.40
2019-02-06T07:09:43.673Z,14.62
2019-02-06T07:10:43.662Z,14.88
2019-02-06T07:11:43.659Z,14.99
2019-02-06T07:12:43.640Z,15.35
2019-02-06T07:13:43.632Z,15.54
2019-02-06T07:14:43.621Z,15.61
2019-02-06T07:15:43.607Z,15.91
2019-02-06T07:16:43.639Z,16.00
2019-02-06T07:17:43.588Z,16.21
2019-02-06T07:18:43.577Z,16.41
2019-02-06T07:19:43.568Z,16.53
2019-02-06T07:20:43.558Z,16.51
2019-02-06T07:21:43.578Z,16.71
2019-02-06T07:22:43.535Z,16.83
2019-02-06T07:23:43.535Z,16.84
2019-02-06T07:24:43.514Z,16.96
2019-02-06T07:25:43.506Z,17.08
2019-02-06T07:26:43.536Z,17.19
2019-02-06T07:27:43.482Z,17.30
2019-02-06T07:28:43.475Z,17.30
2019-02-06T07:29:43.467Z,17.33
2019-02-06T07:30:43.454Z,17.48
2019-02-06T07:31:43.452Z,17.56
2019-02-06T07:32:43.437Z,17.57
2019-02-06T07:33:43.419Z,17.64
2019-02-06T07:34:43.408Z,17.71
2019-02-06T07:35:43.397Z,17.72
2019-02-06T07:36:43.399Z,17.82
2019-02-06T07:37:43.380Z,17.89
2019-02-06T07:38:43.371Z,17.86
2019-02-06T07:39:43.369Z,17.90
2019-02-06T07:40:43.370Z,18.00
2019-02-06T07:41:43.343Z,18.11
2019-02-06T07:42:43.322Z,18.08
2019-02-06T07:43:43.314Z,18.08
2019-02-06T07:44:43.302Z,18.08
2019-02-06T07:45:43.304Z,18.16
2019-02-06T07:46:43.305Z,18.19
2019-02-06T07:47:43.266Z,18.28
2019-02-06T07:48:43.262Z,18.33
2019-02-06T07:49:43.248Z,18.33
2019-02-06T07:50:43.234Z,18.28
2019-02-06T07:51:43.224Z,18.37
2019-02-06T07:52:43.227Z,18.43
2019-02-06T07:53:43.213Z,18.47
2019-02-06T07:54:43.202Z,18.50
2019-02-06T07:55:43.189Z,18.50
2019-02-06T07:56:43.169Z,18.47
2019-02-06T07:57:43.167Z,18.52
2019-02-06T07:58:43.151Z,18.55
2019-02-06T07:59:43.137Z,18.50
2019-02-06T08:00:43.125Z,18.56
2019-02-06T08:01:43.116Z,18.58
2019-02-06T08:02:43.118Z,18.62
2019-02-06T08:03:43.095Z,18.71
2019-02-06T08:04:43.082Z,18.71
2019-02-06T08:05:43.070Z,18.68
2019-02-06T08:06:43.058Z,18.73
2019-02-06T08:07:43.167Z,18.73
2019-02-06T08:08:43.043Z,18.75
2019-02-06T08:09:43.030Z,18.80
2019-02-06T08:10:43.014Z,18.81
2019-02-06T08:11:43.015Z,18.81
2019-02-06T08:12:43.000Z,18.77
2019-02-06T08:13:42.991Z,18.93
2019-02-06T08:14:42.970Z,18.78
2019-02-06T08:15:42.959Z,18.84
2019-02-06T08:16:42.961Z,18.84
2019-02-06T08:17:42.943Z,18.81
2019-02-06T08:18:42.936Z,18.88
2019-02-06T08:19:42.913Z,18.86
2019-02-06T08:20:42.902Z,18.81
2019-02-06T08:21:42.890Z,18.81
2019-02-06T08:22:42.901Z,18.81
2019-02-06T08:23:42.881Z,18.78
2019-02-06T08:24:42.862Z,18.80
2019-02-06T08:25:42.844Z,18.88
2019-02-06T08:26:42.833Z,18.89
2019-02-06T08:27:42.833Z,18.93
2019-02-06T08:28:42.863Z,18.89
2019-02-06T08:29:42.809Z,18.90
2019-02-06T08:30:42.790Z,18.95
2019-02-06T08:31:42.777Z,18.98
2019-02-06T08:32:42.780Z,18.92
2019-02-06T08:33:42.756Z,18.98
2019-02-06T08:34:42.744Z,19.02
2019-02-06T08:35:42.733Z,19.00
2019-02-06T08:36:42.722Z,18.90
2019-02-06T08:37:42.719Z,18.98
2019-02-06T08:38:47.695Z,19.00
2019-02-06T08:39:43.691Z,19.07
2019-02-06T08:40:42.678Z,19.11
2019-02-06T08:41:42.667Z,19.08
2019-02-06T08:42:42.718Z,19.04
2019-02-06T08:43:42.646Z,19.12
2019-02-06T08:44:42.632Z,19.15
2019-02-06T08:45:42.636Z,19.11
2019-02-06T08:46:42.611Z,19.21
2019-02-06T08:47:42.599Z,19.12
2019-02-06T08:48:42.590Z,19.19
2019-02-06T08:49:42.576Z,19.22
2019-02-06T08:50:42.567Z,19.16
2019-02-06T08:51:42.580Z,19.27
2019-02-06T08:52:42.543Z,19.26
2019-02-06T08:53:42.544Z,19.19
2019-02-06T08:54:42.523Z,19.22
2019-02-06T08:55:42.510Z,19.19
2019-02-06T08:56:42.499Z,19.29
2019-02-06T08:57:42.488Z,19.26
2019-02-06T08:58:42.503Z,19.36
2019-02-06T08:59:42.466Z,19.33
2019-02-06T09:00:42.454Z,19.39
2019-02-06T09:01:42.442Z,19.31
2019-02-06T09:02:42.431Z,19.33
2019-02-06T09:03:42.434Z,19.41
2019-02-06T09:04:42.410Z,19.31
2019-02-06T09:05:42.399Z,19.37
2019-02-06T09:06:42.391Z,19.34
2019-02-06T09:07:42.377Z,19.39
2019-02-06T09:08:42.375Z,19.41
2019-02-06T09:09:43.607Z,19.44
2019-02-06T09:10:42.343Z,19.45
2019-02-06T09:11:42.425Z,19.44
2019-02-06T09:12:42.323Z,19.45
2019-02-06T09:13:42.323Z,19.47
2019-02-06T09:14:42.297Z,19.44
2019-02-06T09:15:42.287Z,19.51
2019-02-06T09:16:42.277Z,19.48
2019-02-06T09:17:42.265Z,19.55
2019-02-06T09:18:42.263Z,19.54
2019-02-06T09:19:42.244Z,19.52
2019-02-06T09:20:42.231Z,19.52
2019-02-06T09:21:42.221Z,19.58
2019-02-06T09:22:42.210Z,19.59
2019-02-06T09:23:42.207Z,19.62
2019-02-06T09:24:42.189Z,19.62
2019-02-06T09:25:42.175Z,19.62
2019-02-06T09:26:42.165Z,19.64
2019-02-06T09:27:42.154Z,19.67
2019-02-06T09:28:42.187Z,19.67
2019-02-06T09:29:42.131Z,19.69
2019-02-06T09:30:42.121Z,19.67
2019-02-06T09:31:42.109Z,19.71
2019-02-06T09:32:42.097Z,19.71
2019-02-06T09:33:42.094Z,19.71
2019-02-06T09:34:42.075Z,19.73
2019-02-06T09:35:42.067Z,19.82
2019-02-06T09:36:42.052Z,19.69
2019-02-06T09:37:42.042Z,19.79
2019-02-06T09:38:42.032Z,19.74
2019-02-06T09:39:42.019Z,19.79
2019-02-06T09:40:42.018Z,19.77
2019-02-06T09:41:41.999Z,19.84
2019-02-06T09:42:42.006Z,19.89
2019-02-06T09:43:41.975Z,19.85
2019-02-06T09:44:41.964Z,19.85
2019-02-06T09:45:41.957Z,19.84
2019-02-06T09:46:41.941Z,19.86
2019-02-06T09:47:41.934Z,19.84
2019-02-06T09:48:41.921Z,19.84
2019-02-06T09:49:41.907Z,19.81
2019-02-06T09:50:41.899Z,19.88
2019-02-06T09:51:41.886Z,19.88
2019-02-06T09:52:41.879Z,19.84
2019-02-06T09:53:41.864Z,19.91
2019-02-06T09:54:41.853Z,19.89
2019-02-06T09:55:41.851Z,19.86
2019-02-06T09:56:41.832Z,19.86
2019-02-06T09:57:41.828Z,19.92
2019-02-06T09:58:41.809Z,19.86
2019-02-06T09:59:41.868Z,19.94
2019-02-06T10:00:41.795Z,19.92
2019-02-06T10:01:41.777Z,19.99
2019-02-06T10:02:41.766Z,19.85
2019-02-06T10:03:41.756Z,19.99
2019-02-06T10:04:41.755Z,19.92
2019-02-06T10:05:41.744Z,19.92
2019-02-06T10:06:41.721Z,19.85
2019-02-06T10:07:41.715Z,19.84
2019-02-06T10:08:41.698Z,19.95
2019-02-06T10:09:41.689Z,19.94
2019-02-06T10:10:41.689Z,19.94
2019-02-06T10:11:41.667Z,19.89
2019-02-06T10:12:41.665Z,19.91
2019-02-06T10:13:41.646Z,19.99
2019-02-06T10:14:41.632Z,19.96
2019-02-06T10:15:41.632Z,20.00
2019-02-06T10:16:41.611Z,19.95
2019-02-06T10:17:41.599Z,19.95
2019-02-06T10:18:41.590Z,20.07
2019-02-06T10:19:42.527Z,19.92
2019-02-06T10:20:41.567Z,19.96
2019-02-06T10:21:41.569Z,19.96
2019-02-06T10:22:41.547Z,19.94
2019-02-06T10:23:41.534Z,19.96
2019-02-06T10:24:41.524Z,20.00
2019-02-06T10:25:41.511Z,19.96
2019-02-06T10:26:41.536Z,19.96
2019-02-06T10:27:41.492Z,19.95
2019-02-06T10:28:41.585Z,19.99
2019-02-06T10:29:41.466Z,19.95
2019-02-06T10:30:41.457Z,20.10
2019-02-06T10:31:41.453Z,19.96
2019-02-06T10:32:41.435Z,20.09
2019-02-06T10:33:41.422Z,19.94
2019-02-06T10:34:41.410Z,19.94
2019-02-06T10:35:41.400Z,19.99
2019-02-06T10:36:41.403Z,19.99
2019-02-06T10:37:41.378Z,19.95
2019-02-06T10:38:41.369Z,20.00
2019-02-06T10:39:41.356Z,19.99
2019-02-06T10:40:41.405Z,19.95
2019-02-06T10:41:41.345Z,19.89
2019-02-06T10:42:41.322Z,20.07
2019-02-06T10:43:41.310Z,19.94
2019-02-06T10:44:41.299Z,19.94
2019-02-06T10:45:41.290Z,20.00
2019-02-06T10:46:41.291Z,20.00
2019-02-06T10:47:41.266Z,20.00
2019-02-06T10:48:43.778Z,20.00
2019-02-06T10:49:41.288Z,19.94
2019-02-06T10:50:41.258Z,20.00
2019-02-06T10:51:41.247Z,20.00
2019-02-06T10:52:41.213Z,19.99
2019-02-06T10:53:41.252Z,19.96
2019-02-06T10:54:41.187Z,19.96
2019-02-06T10:55:41.180Z,19.99
2019-02-06T10:56:41.168Z,20.02
2019-02-06T10:57:41.164Z,19.99
2019-02-06T10:58:41.151Z,19.95
2019-02-06T10:59:41.132Z,19.99
2019-02-06T11:00:41.120Z,19.94
2019-02-06T11:01:41.114Z,19.94
2019-02-06T11:02:41.118Z,19.96
2019-02-06T11:03:41.133Z,20.02
2019-02-06T11:04:41.150Z,20.07
2019-02-06T11:05:41.066Z,20.06
2019-02-06T11:06:41.054Z,20.04
2019-02-06T11:07:41.054Z,20.10
2019-02-06T11:08:41.032Z,20.06
2019-02-06T11:09:46.153Z,20.10
2019-02-06T11:10:42.010Z,20.09
2019-02-06T11:11:41.001Z,20.09
2019-02-06T11:12:41.004Z,20.09
2019-02-06T11:13:40.977Z,20.06
2019-02-06T11:14:40.966Z,20.10
2019-02-06T11:15:40.956Z,20.14
2019-02-06T11:16:40.947Z,20.10
2019-02-06T11:17:40.938Z,20.11
2019-02-06T11:18:40.925Z,20.11
2019-02-06T11:19:42.990Z,20.07
2019-02-06T11:20:40.907Z,20.13
2019-02-06T11:21:40.891Z,20.13
2019-02-06T11:22:40.893Z,20.19
2019-02-06T11:23:40.869Z,20.18
2019-02-06T11:24:40.859Z,20.16
2019-02-06T11:25:40.857Z,20.11
2019-02-06T11:26:40.840Z,20.19
2019-02-06T11:27:40.848Z,20.22
2019-02-06T11:28:40.814Z,20.21
2019-02-06T11:29:40.854Z,20.22
2019-02-06T11:30:40.794Z,20.21
2019-02-06T11:31:40.783Z,20.19
2019-02-06T11:32:40.774Z,20.24
2019-02-06T11:33:40.763Z,20.22
2019-02-06T11:34:40.750Z,20.16
2019-02-06T11:35:40.741Z,20.22
2019-02-06T11:36:40.728Z,20.22
2019-02-06T11:37:40.716Z,20.22
2019-02-06T11:38:40.714Z,20.22
2019-02-06T11:39:40.696Z,20.22
2019-02-06T11:40:40.687Z,20.22
2019-02-06T11:41:40.675Z,20.26
2019-02-06T11:42:40.663Z,20.22
2019-02-06T11:43:40.705Z,20.22
2019-02-06T11:44:40.643Z,20.22
2019-02-06T11:45:40.632Z,20.22
2019-02-06T11:46:40.618Z,20.19
2019-02-06T11:47:40.607Z,20.16
2019-02-06T11:48:43.338Z,20.25
2019-02-06T11:49:40.591Z,20.19
2019-02-06T11:50:40.589Z,20.22
2019-02-06T11:51:40.599Z,20.19
2019-02-06T11:52:40.554Z,20.19
2019-02-06T11:53:40.549Z,20.21
2019-02-06T11:54:40.552Z,20.24
2019-02-06T11:55:40.524Z,20.22
2019-02-06T11:56:40.540Z,20.14
2019-02-06T11:57:40.500Z,20.10
2019-02-06T11:58:40.498Z,20.06
2019-02-06T11:59:40.482Z,20.10
2019-02-06T12:00:40.468Z,20.10
2019-02-06T12:01:40.458Z,20.13
2019-02-06T12:02:40.466Z,20.09
2019-02-06T12:03:40.437Z,20.07
2019-02-06T12:04:40.427Z,20.00
2019-02-06T12:05:40.414Z,19.96
2019-02-06T12:06:40.404Z,19.99
2019-02-06T12:07:40.391Z,20.07
2019-02-06T12:08:40.396Z,20.07
2019-02-06T12:09:40.374Z,20.09
2019-02-06T12:10:40.362Z,20.04
2019-02-06T12:11:40.349Z,20.06
2019-02-06T12:12:40.361Z,20.14
2019-02-06T12:13:40.340Z,20.06
2019-02-06T12:14:40.318Z,20.09
2019-02-06T12:15:40.309Z,20.21
2019-02-06T12:16:40.295Z,20.07
2019-02-06T12:17:40.293Z,20.26
2019-02-06T12:18:40.308Z,20.21
2019-02-06T12:19:40.264Z,20.26
2019-02-06T12:20:40.254Z,20.24
2019-02-06T12:21:40.241Z,20.28
2019-02-06T12:22:40.229Z,20.19
2019-02-06T12:23:40.242Z,20.19
2019-02-06T12:24:40.250Z,20.25
2019-02-06T12:25:40.199Z,20.16
2019-02-06T12:26:40.191Z,20.21
2019-02-06T12:27:40.178Z,20.24
2019-02-06T12:28:40.165Z,20.25
2019-02-06T12:29:40.166Z,20.18
2019-02-06T12:30:40.144Z,20.14
2019-02-06T12:31:40.135Z,20.25
2019-02-06T12:32:51.502Z,20.22
2019-02-06T12:33:41.119Z,20.22
2019-02-06T12:34:40.115Z,20.21
2019-02-06T12:35:40.089Z,20.24
2019-02-06T12:36:40.080Z,20.24
2019-02-06T12:37:40.066Z,20.21
2019-02-06T12:38:40.056Z,20.26
2019-02-06T12:39:40.056Z,20.25
2019-02-06T12:40:40.037Z,20.25
2019-02-06T12:41:40.026Z,20.19
2019-02-06T12:42:40.012Z,20.24
2019-02-06T12:43:40.018Z,20.18
2019-02-06T12:44:40.005Z,20.26
2019-02-06T12:45:40.012Z,20.19
2019-02-06T12:46:39.976Z,20.24
2019-02-06T12:47:40.055Z,20.34
2019-02-06T12:48:39.948Z,20.26
2019-02-06T12:49:39.978Z,20.19
2019-02-06T12:50:39.929Z,20.29
2019-02-06T12:51:39.915Z,20.25
2019-02-06T12:52:39.904Z,20.25